Time;durP1;ratioP1;P1;durP2;ratioP2;P2;SDS_P1;SDS_P2;PMS_P1;PMS_P2;Temp;Humidity;BMP_temperature;BMP_pressure;BME280_temperature;BME280_humidity;BME280_pressure;Samples;Min_cycle;Max_cycle;Signal;HPM_P1;HPM_P2
2021/11/06 00:02:21;;;;;;;8.85;4.78;;;9.30;81.50;;;;;;5057733;28;20035;-78
2021/11/06 00:04:47;;;;;;;7.40;4.10;;;9.30;81.50;;;;;;5090789;28;20394;-83
2021/11/06 00:07:13;;;;;;;8.57;4.20;;;9.30;81.60;;;;;;5093711;28;20036;-83
2021/11/06 00:09:39;;;;;;;7.30;4.45;;;9.30;81.60;;;;;;5075238;28;20461;-83
2021/11/06 00:12:06;;;;;;;8.02;4.00;;;9.20;81.70;;;;;;5075088;28;20120;-78
2021/11/06 00:14:33;;;;;;;6.38;3.63;;;9.20;81.70;;;;;;5073571;28;20040;-79
2021/11/06 00:16:59;;;;;;;7.70;4.28;;;9.20;81.70;;;;;;5074256;28;20062;-78
2021/11/06 00:19:25;;;;;;;6.82;4.50;;;9.20;81.70;;;;;;5074105;28;20032;-78
2021/11/06 00:21:51;;;;;;;7.50;4.35;;;9.20;81.60;;;;;;5092500;28;20237;-78
2021/11/06 00:24:19;;;;;;;7.53;4.60;;;9.20;81.60;;;;;;5093164;28;20085;-78
2021/11/06 00:26:49;;;;;;;7.20;4.43;;;9.20;81.60;;;;;;5107944;28;20020;-77
2021/11/06 00:29:18;;;;;;;6.70;4.03;;;9.10;81.60;;;;;;5074675;28;20363;-78
2021/11/06 00:31:44;;;;;;;9.93;4.63;;;9.10;81.70;;;;;;5092342;28;20360;-78
2021/11/06 00:34:11;;;;;;;8.38;5.00;;;9.10;81.80;;;;;;5090711;28;20039;-83
2021/11/06 00:36:37;;;;;;;8.27;5.88;;;9.10;81.80;;;;;;5068936;28;20065;-77
2021/11/06 00:39:04;;;;;;;8.40;4.78;;;9.00;81.80;;;;;;5089789;28;20478;-77
2021/11/06 00:41:30;;;;;;;9.32;5.03;;;9.10;81.80;;;;;;5089998;28;20024;-78
2021/11/06 00:43:55;;;;;;;7.22;5.03;;;9.00;81.70;;;;;;5073173;28;20115;-77
2021/11/06 00:46:21;;;;;;;12.85;6.35;;;9.00;81.70;;;;;;5077385;28;20031;-78
2021/11/06 00:48:47;;;;;;;9.30;4.88;;;9.00;81.70;;;;;;5093944;28;20479;-77
2021/11/06 00:51:12;;;;;;;12.60;5.80;;;9.00;81.80;;;;;;5112856;28;20417;-83
2021/11/06 00:53:38;;;;;;;7.90;5.30;;;8.90;81.70;;;;;;5112549;28;20070;-83
2021/11/06 00:56:07;;;;;;;9.63;4.93;;;8.90;81.70;;;;;;5113021;28;20076;-83
2021/11/06 00:58:33;;;;;;;10.32;4.95;;;8.90;81.70;;;;;;5093821;28;20024;-77
2021/11/06 01:00:58;;;;;;;7.32;5.00;;;8.90;81.80;;;;;;5111706;28;20080;-78
2021/11/06 01:03:24;;;;;;;13.05;6.53;;;8.90;81.80;;;;;;5093483;28;20029;-78
2021/11/06 01:05:50;;;;;;;9.32;6.05;;;8.90;81.80;;;;;;5111484;28;20027;-78
2021/11/06 01:08:15;;;;;;;14.60;6.00;;;8.90;81.70;;;;;;5112144;28;20096;-78
2021/11/06 01:10:43;;;;;;;11.70;5.70;;;8.90;81.80;;;;;;5076694;28;20371;-78
2021/11/06 01:13:09;;;;;;;9.15;5.43;;;8.90;81.60;;;;;;5093693;28;20031;-78
2021/11/06 01:15:36;;;;;;;10.40;5.63;;;8.90;81.60;;;;;;5111369;28;20036;-83
2021/11/06 01:18:01;;;;;;;14.60;5.90;;;8.90;81.70;;;;;;5112528;28;20103;-83
2021/11/06 01:20:27;;;;;;;8.98;6.40;;;8.90;81.80;;;;;;5111272;28;20103;-77
2021/11/06 01:22:53;;;;;;;12.95;6.95;;;8.90;81.80;;;;;;5093479;28;20031;-78
2021/11/06 01:25:19;;;;;;;8.48;6.32;;;8.90;81.80;;;;;;5092991;28;20024;-78
2021/11/06 01:27:45;;;;;;;8.77;7.15;;;8.90;81.80;;;;;;5093307;28;20028;-81
2021/11/06 01:30:11;;;;;;;11.30;6.45;;;8.90;81.80;;;;;;5112274;28;20051;-83
2021/11/06 01:32:38;;;;;;;8.68;6.63;;;8.90;81.80;;;;;;5093692;28;20424;-78
2021/11/06 01:35:05;;;;;;;13.10;7.40;;;8.80;81.70;;;;;;5110459;28;20024;-78
2021/11/06 01:37:31;;;;;;;9.45;7.57;;;8.80;81.70;;;;;;5093007;28;20446;-77
2021/11/06 01:39:57;;;;;;;13.20;7.18;;;8.90;81.60;;;;;;5092814;28;20387;-77
2021/11/06 01:42:25;;;;;;;10.05;6.40;;;8.80;81.70;;;;;;5092777;28;20037;-78
2021/11/06 01:44:51;;;;;;;10.38;7.68;;;8.90;81.70;;;;;;5092507;28;20023;-78
2021/11/06 01:47:17;;;;;;;11.60;8.05;;;8.90;81.60;;;;;;5093443;28;20038;-83
2021/11/06 01:49:43;;;;;;;10.10;6.97;;;8.80;81.40;;;;;;5111619;28;20023;-78
2021/11/06 01:52:09;;;;;;;10.18;7.72;;;8.80;81.50;;;;;;5092849;28;20425;-78
2021/11/06 01:54:35;;;;;;;13.30;8.93;;;8.80;81.60;;;;;;5075185;28;20057;-78
2021/11/06 01:57:02;;;;;;;10.98;8.15;;;8.80;81.40;;;;;;5110871;28;20032;-78
2021/11/06 01:59:28;;;;;;;15.25;9.13;;;8.80;81.60;;;;;;5092667;28;20035;-77
2021/11/06 02:01:53;;;;;;;12.38;8.07;;;8.80;81.30;;;;;;5092546;28;20070;-77
2021/11/06 02:04:19;;;;;;;10.30;7.82;;;8.80;81.30;;;;;;5109968;28;20489;-77
2021/11/06 02:06:45;;;;;;;13.35;9.00;;;8.90;81.30;;;;;;5093012;28;20395;-77
2021/11/06 02:09:11;;;;;;;9.68;7.60;;;8.80;81.20;;;;;;5092597;28;20036;-77
2021/11/06 02:11:38;;;;;;;12.35;7.90;;;8.80;81.10;;;;;;5092449;28;20028;-77
2021/11/06 02:14:04;;;;;;;12.68;8.27;;;8.80;81.10;;;;;;5109738;28;20035;-78
2021/11/06 02:16:30;;;;;;;12.07;8.55;;;8.80;81.20;;;;;;5092510;28;20024;-78
2021/11/06 02:18:56;;;;;;;14.60;8.70;;;8.80;81.20;;;;;;5074847;28;20089;-78
2021/11/06 02:21:22;;;;;;;14.38;8.90;;;8.80;81.20;;;;;;5110524;28;20386;-78
2021/11/06 02:23:49;;;;;;;15.65;8.60;;;8.80;81.30;;;;;;5104724;28;20035;-83
2021/11/06 02:26:17;;;;;;;15.73;9.23;;;8.80;81.30;;;;;;5109148;28;20024;-83
2021/11/06 02:28:45;;;;;;;13.30;8.65;;;8.80;81.30;;;;;;5093305;28;20055;-78
2021/11/06 02:31:11;;;;;;;18.00;9.38;;;8.80;81.40;;;;;;5074804;28;20510;-77
2021/11/06 02:33:37;;;;;;;14.85;9.60;;;8.80;81.10;;;;;;5093189;28;20779;-77
2021/11/06 02:36:03;;;;;;;14.27;9.15;;;8.80;81.80;;;;;;5074575;28;20020;-77
2021/11/06 02:38:28;;;;;;;13.48;8.23;;;8.80;81.10;;;;;;5074865;28;20091;-77
2021/11/06 02:40:56;;;;;;;18.35;9.88;;;8.80;81.30;;;;;;5092731;28;20028;-77
2021/11/06 02:43:21;;;;;;;16.23;9.27;;;8.80;81.00;;;;;;5074800;28;20043;-77
2021/11/06 02:45:47;;;;;;;14.75;9.23;;;8.80;80.90;;;;;;5074472;28;20028;-78
2021/11/06 02:48:14;;;;;;;15.75;9.50;;;8.80;81.20;;;;;;5108325;28;20414;-78
2021/11/06 02:50:40;;;;;;;17.83;10.32;;;8.80;81.30;;;;;;5092590;28;20063;-78
2021/11/06 02:53:06;;;;;;;19.85;10.98;;;8.80;81.40;;;;;;5090994;28;20113;-77
2021/11/06 02:55:33;;;;;;;19.48;10.02;;;8.80;81.50;;;;;;5092406;28;20028;-77
2021/11/06 02:57:58;;;;;;;17.52;9.35;;;8.80;81.60;;;;;;5092772;28;20046;-77
2021/11/06 03:00:27;;;;;;;20.83;10.43;;;8.80;81.80;;;;;;5092467;28;20024;-77
2021/11/06 03:02:54;;;;;;;19.52;10.00;;;8.80;81.70;;;;;;5074464;28;20021;-77
2021/11/06 03:05:21;;;;;;;20.08;9.70;;;8.90;82.10;;;;;;5074222;28;20115;-77
2021/11/06 03:07:47;;;;;;;23.13;10.52;;;8.80;81.50;;;;;;5092676;28;20039;-77
2021/11/06 03:10:14;;;;;;;21.63;10.23;;;8.80;81.60;;;;;;5091598;28;20020;-78
2021/11/06 03:12:40;;;;;;;22.20;10.40;;;8.80;81.90;;;;;;5091811;28;20028;-77
2021/11/06 03:15:06;;;;;;;23.85;11.63;;;8.90;81.80;;;;;;5092248;28;20058;-82
2021/11/06 03:17:32;;;;;;;24.02;11.93;;;8.90;81.60;;;;;;5092957;28;20501;-83
2021/11/06 03:19:58;;;;;;;27.73;10.75;;;8.90;81.40;;;;;;5092302;28;20024;-82
2021/11/06 03:22:23;;;;;;;26.42;12.55;;;8.90;81.40;;;;;;5073461;28;20029;-76
2021/11/06 03:24:49;;;;;;;27.67;13.20;;;8.90;81.20;;;;;;5074222;28;20051;-78
2021/11/06 03:27:15;;;;;;;31.63;13.77;;;8.80;81.20;;;;;;5074767;28;20016;-78
2021/11/06 03:29:41;;;;;;;29.58;13.68;;;8.80;81.30;;;;;;5074235;28;20029;-78
2021/11/06 03:32:08;;;;;;;28.67;12.43;;;8.80;81.40;;;;;;5092296;28;20683;-77
2021/11/06 03:34:34;;;;;;;26.77;12.95;;;8.80;81.20;;;;;;5091915;28;20034;-78
2021/11/06 03:37:00;;;;;;;27.10;12.52;;;8.80;81.40;;;;;;5093694;28;20424;-83
2021/11/06 03:39:26;;;;;;;28.33;12.90;;;8.80;81.40;;;;;;5095183;28;20417;-83
2021/11/06 03:41:52;;;;;;;28.33;13.30;;;8.70;81.20;;;;;;5096324;28;20028;-84
2021/11/06 03:44:18;;;;;;;26.45;13.20;;;8.70;81.20;;;;;;5061256;28;20056;-83
2021/11/06 03:46:44;;;;;;;25.50;12.85;;;8.70;81.40;;;;;;5096426;28;20073;-84
2021/11/06 03:49:11;;;;;;;27.33;12.45;;;8.70;81.40;;;;;;5077825;28;20032;-84
2021/11/06 03:51:37;;;;;;;28.55;13.00;;;8.70;81.40;;;;;;5078441;28;20020;-83
2021/11/06 03:54:03;;;;;;;26.98;13.18;;;8.80;81.60;;;;;;5095846;28;20036;-82
2021/11/06 03:56:29;;;;;;;30.27;13.52;;;8.80;81.20;;;;;;5092442;28;20032;-78
2021/11/06 03:58:55;;;;;;;30.98;13.23;;;8.80;81.00;;;;;;5075748;28;20028;-77
2021/11/06 04:01:21;;;;;;;27.48;13.38;;;8.70;81.10;;;;;;5075513;28;20043;-79
2021/11/06 04:03:47;;;;;;;29.27;13.35;;;8.70;81.20;;;;;;5081882;28;20038;-78
2021/11/06 04:06:14;;;;;;;23.25;12.80;;;8.70;81.10;;;;;;5095729;28;20020;-78
2021/11/06 04:08:41;;;;;;;25.77;12.90;;;8.70;81.20;;;;;;5115231;28;20478;-78
2021/11/06 04:11:07;;;;;;;22.33;12.65;;;8.70;81.30;;;;;;5096228;28;20655;-77
2021/11/06 04:13:33;;;;;;;22.85;12.10;;;8.70;81.20;;;;;;5105666;28;20036;-77
2021/11/06 04:15:59;;;;;;;25.27;12.13;;;8.70;81.20;;;;;;5093463;28;20482;-79
2021/11/06 04:18:25;;;;;;;23.65;12.00;;;8.70;81.20;;;;;;5112637;28;20031;-78
2021/11/06 04:20:51;;;;;;;25.45;11.82;;;8.70;81.20;;;;;;5110932;28;20073;-78
2021/11/06 04:23:17;;;;;;;25.88;13.18;;;8.70;81.00;;;;;;5112547;28;20034;-77
2021/11/06 04:25:44;;;;;;;24.63;12.20;;;8.70;81.10;;;;;;5094587;28;20036;-78
2021/11/06 04:28:10;;;;;;;28.60;13.05;;;8.70;81.10;;;;;;5077987;28;20084;-78
2021/11/06 04:30:36;;;;;;;23.95;12.68;;;8.70;81.00;;;;;;5095447;28;20494;-84
2021/11/06 04:33:02;;;;;;;26.92;12.43;;;8.70;81.00;;;;;;5095162;28;20161;-84
2021/11/06 04:35:27;;;;;;;24.02;12.40;;;8.70;81.10;;;;;;5095589;28;20123;-84
2021/11/06 04:37:53;;;;;;;20.80;11.75;;;8.70;81.20;;;;;;5095383;28;20099;-83
2021/11/06 04:40:19;;;;;;;28.02;13.13;;;8.70;81.20;;;;;;5078953;28;20031;-84
2021/11/06 04:42:45;;;;;;;20.90;11.52;;;8.70;81.20;;;;;;5114109;28;20035;-83
2021/11/06 04:45:12;;;;;;;22.05;12.35;;;8.70;81.20;;;;;;5095044;28;20422;-84
2021/11/06 04:47:38;;;;;;;23.25;12.35;;;8.70;81.20;;;;;;5113487;28;20462;-83
2021/11/06 04:50:06;;;;;;;17.55;11.25;;;8.70;81.30;;;;;;5113015;28;20481;-84
2021/11/06 04:52:33;;;;;;;24.08;12.25;;;8.70;81.30;;;;;;5094395;28;20092;-79
2021/11/06 04:54:59;;;;;;;24.23;12.73;;;8.70;81.30;;;;;;5106641;28;20378;-78
2021/11/06 04:57:25;;;;;;;19.27;11.60;;;8.70;81.20;;;;;;5093619;27;20016;-84
2021/11/06 04:59:51;;;;;;;24.45;12.93;;;8.60;81.20;;;;;;5108581;27;20310;-84
2021/11/06 05:02:16;;;;;;;23.75;12.38;;;8.60;81.30;;;;;;5097575;27;20043;-83
2021/11/06 05:04:43;;;;;;;26.15;13.45;;;8.60;81.40;;;;;;5100258;27;20072;-79
2021/11/06 05:07:08;;;;;;;25.20;12.50;;;8.60;81.30;;;;;;5097356;28;20033;-84
2021/11/06 05:09:34;;;;;;;21.35;12.13;;;8.60;81.30;;;;;;5104019;27;20039;-84
2021/11/06 05:12:00;;;;;;;23.25;12.75;;;8.60;81.20;;;;;;5083935;27;20024;-83
2021/11/06 05:14:26;;;;;;;21.33;12.52;;;8.60;81.20;;;;;;5124493;27;20038;-84
2021/11/06 05:16:51;;;;;;;24.50;13.13;;;8.60;81.40;;;;;;5104822;27;20027;-84
2021/11/06 05:19:17;;;;;;;26.42;12.70;;;8.60;81.40;;;;;;5107366;27;20031;-84
2021/11/06 05:21:44;;;;;;;25.38;13.48;;;8.60;81.60;;;;;;5099018;27;20033;-84
2021/11/06 05:24:10;;;;;;;23.35;13.63;;;8.60;81.50;;;;;;5122624;27;20031;-83
2021/11/06 05:26:39;;;;;;;21.90;12.63;;;8.60;81.60;;;;;;5125095;27;20416;-83
2021/11/06 05:29:08;;;;;;;25.80;13.40;;;8.60;81.50;;;;;;5122356;27;20034;-84
2021/11/06 05:31:36;;;;;;;21.35;12.88;;;8.60;81.70;;;;;;5122946;27;20023;-83
2021/11/06 05:34:02;;;;;;;24.50;12.90;;;8.60;81.70;;;;;;5121074;27;20356;-83
2021/11/06 05:36:29;;;;;;;28.65;14.20;;;8.60;81.90;;;;;;5105809;27;20071;-83
2021/11/06 05:38:55;;;;;;;27.65;13.25;;;8.60;81.90;;;;;;5103323;27;20029;-84
2021/11/06 05:41:21;;;;;;;25.38;14.07;;;8.60;82.00;;;;;;5117883;27;20031;-77
2021/11/06 05:43:47;;;;;;;20.95;13.23;;;8.60;82.20;;;;;;5121135;27;20046;-78
2021/11/06 05:46:13;;;;;;;25.35;15.00;;;8.60;82.50;;;;;;5092155;28;20059;-78
2021/11/06 05:48:39;;;;;;;28.58;15.60;;;8.60;82.70;;;;;;5095017;27;20038;-78
2021/11/06 05:51:05;;;;;;;22.63;14.27;;;8.60;82.90;;;;;;5115045;27;20050;-84
2021/11/06 05:53:31;;;;;;;22.55;12.85;;;8.60;83.00;;;;;;5120952;27;20051;-83
2021/11/06 05:55:57;;;;;;;28.13;16.35;;;8.60;83.10;;;;;;5129747;27;20035;-83
2021/11/06 05:58:23;;;;;;;27.13;15.23;;;8.60;83.20;;;;;;5103191;28;20038;-84
2021/11/06 06:00:51;;;;;;;22.63;14.45;;;8.60;83.20;;;;;;5110086;27;20031;-78
2021/11/06 06:03:17;;;;;;;25.42;15.25;;;8.60;83.40;;;;;;5110122;28;20091;-78
2021/11/06 06:05:44;;;;;;;26.92;16.30;;;8.60;83.60;;;;;;5091736;28;20023;-78
2021/11/06 06:08:10;;;;;;;31.98;16.58;;;8.60;83.70;;;;;;5092600;28;20478;-78
2021/11/06 06:10:36;;;;;;;24.95;15.98;;;8.60;83.90;;;;;;5110662;28;20024;-78
2021/11/06 06:13:02;;;;;;;30.02;16.30;;;8.60;83.90;;;;;;5110056;28;20052;-78
2021/11/06 06:15:28;;;;;;;24.25;17.13;;;8.60;83.90;;;;;;5091909;28;20048;-78
2021/11/06 06:17:55;;;;;;;25.15;15.77;;;8.60;84.00;;;;;;5092312;28;20051;-78
2021/11/06 06:20:21;;;;;;;25.33;14.82;;;8.60;84.00;;;;;;5092296;28;20177;-78
2021/11/06 06:22:48;;;;;;;22.92;16.83;;;8.60;84.00;;;;;;5110090;28;20501;-78
2021/11/06 06:25:14;;;;;;;25.60;15.88;;;8.60;84.00;;;;;;5075194;28;20027;-78
2021/11/06 06:27:41;;;;;;;25.30;16.13;;;8.60;84.00;;;;;;5092622;28;20112;-78
2021/11/06 06:30:09;;;;;;;24.85;16.42;;;8.60;84.00;;;;;;5091872;28;20081;-84
2021/11/06 06:32:37;;;;;;;20.95;16.02;;;8.60;84.10;;;;;;5094126;28;20070;-83
2021/11/06 06:35:04;;;;;;;19.08;14.55;;;8.60;84.10;;;;;;5092583;28;20073;-83
2021/11/06 06:37:29;;;;;;;19.63;14.27;;;8.60;84.10;;;;;;5093522;28;20024;-82
2021/11/06 06:39:55;;;;;;;29.35;17.10;;;8.60;84.10;;;;;;5093491;28;20020;-83
2021/11/06 06:42:23;;;;;;;25.73;16.77;;;8.60;84.10;;;;;;5111459;28;20122;-83
2021/11/06 06:44:49;;;;;;;25.45;17.40;;;8.60;84.10;;;;;;5093210;28;20114;-82
2021/11/06 06:47:15;;;;;;;26.75;16.45;;;8.60;84.00;;;;;;5111818;28;20492;-83
2021/11/06 06:49:41;;;;;;;26.90;16.60;;;8.60;84.10;;;;;;5076296;28;20106;-83
2021/11/06 06:52:07;;;;;;;23.13;16.10;;;8.60;84.20;;;;;;5093227;28;20031;-83
2021/11/06 06:54:33;;;;;;;25.55;16.80;;;8.60;84.20;;;;;;5092750;28;20054;-83
2021/11/06 06:56:58;;;;;;;21.50;15.93;;;8.60;84.30;;;;;;5111308;28;20102;-83
2021/11/06 06:59:24;;;;;;;25.33;16.35;;;8.60;84.30;;;;;;5093161;28;20047;-84
2021/11/06 07:01:50;;;;;;;23.50;16.60;;;8.60;84.30;;;;;;5111456;28;20478;-83
2021/11/06 07:04:16;;;;;;;23.60;16.05;;;8.60;84.40;;;;;;5110759;28;20075;-83
2021/11/06 07:06:42;;;;;;;26.63;17.10;;;8.60;84.50;;;;;;5092732;28;20036;-83
2021/11/06 07:09:09;;;;;;;24.60;16.95;;;8.60;84.50;;;;;;5076096;28;20448;-83
2021/11/06 07:11:34;;;;;;;22.60;15.77;;;8.60;84.60;;;;;;5115516;28;20028;-84
2021/11/06 07:14:00;;;;;;;24.65;16.80;;;8.70;84.50;;;;;;5096159;28;20031;-83
2021/11/06 07:16:27;;;;;;;27.00;17.08;;;8.60;84.30;;;;;;5115138;28;20024;-83
2021/11/06 07:18:52;;;;;;;26.08;17.33;;;8.60;84.30;;;;;;5097056;28;20019;-83
2021/11/06 07:21:18;;;;;;;22.65;15.60;;;8.60;84.40;;;;;;5080139;28;20028;-83
2021/11/06 07:23:44;;;;;;;21.45;16.20;;;8.70;84.50;;;;;;5115060;28;20028;-83
2021/11/06 07:26:10;;;;;;;21.23;15.43;;;8.70;84.40;;;;;;5115084;28;20078;-83
2021/11/06 07:28:36;;;;;;;21.10;14.88;;;8.70;84.50;;;;;;5097031;28;20036;-84
2021/11/06 07:31:02;;;;;;;24.65;17.08;;;8.70;84.40;;;;;;5079696;28;20429;-84
2021/11/06 07:33:27;;;;;;;23.50;17.38;;;8.70;84.40;;;;;;5096444;28;20478;-83
2021/11/06 07:35:53;;;;;;;23.10;15.90;;;8.70;84.40;;;;;;5096449;28;20030;-84
2021/11/06 07:38:19;;;;;;;20.88;14.07;;;8.70;84.40;;;;;;5096703;28;20053;-84
2021/11/06 07:40:44;;;;;;;24.83;16.83;;;8.70;84.50;;;;;;5114423;28;20032;-77
2021/11/06 07:43:11;;;;;;;22.02;15.52;;;8.70;84.60;;;;;;5095822;28;20027;-84
2021/11/06 07:45:38;;;;;;;24.38;17.33;;;8.80;84.70;;;;;;5096999;28;20057;-84
2021/11/06 07:48:04;;;;;;;23.55;16.85;;;8.70;84.70;;;;;;5095506;28;20093;-78
2021/11/06 07:50:30;;;;;;;25.23;17.73;;;8.70;84.80;;;;;;5095059;28;20024;-78
2021/11/06 07:52:57;;;;;;;23.83;16.17;;;8.80;85.00;;;;;;5057062;28;20085;-78
2021/11/06 07:55:22;;;;;;;24.60;17.33;;;8.80;85.00;;;;;;5092459;28;20051;-78
2021/11/06 07:57:48;;;;;;;22.67;15.50;;;8.80;85.10;;;;;;5074453;28;20036;-78
2021/11/06 08:00:18;;;;;;;21.60;15.18;;;8.80;85.00;;;;;;5093014;28;20013;-78
2021/11/06 08:02:44;;;;;;;22.05;15.10;;;8.80;85.10;;;;;;5075268;28;20480;-84
2021/11/06 08:05:12;;;;;;;22.17;15.80;;;8.90;85.10;;;;;;5076124;28;20482;-84
2021/11/06 08:07:38;;;;;;;22.33;16.15;;;8.80;85.10;;;;;;5093900;28;20051;-84
2021/11/06 08:10:05;;;;;;;20.15;15.77;;;8.90;85.10;;;;;;5075349;28;20059;-84
2021/11/06 08:12:32;;;;;;;21.35;14.10;;;8.90;85.10;;;;;;5075951;28;20024;-84
2021/11/06 08:14:58;;;;;;;22.25;15.30;;;8.90;85.20;;;;;;5093602;28;20070;-84
2021/11/06 08:17:23;;;;;;;24.23;15.90;;;8.90;85.20;;;;;;5058771;28;20048;-78
2021/11/06 08:19:49;;;;;;;21.92;15.60;;;8.90;85.20;;;;;;5090694;28;20027;-77
2021/11/06 08:22:15;;;;;;;20.73;15.10;;;8.90;85.20;;;;;;5091806;28;20024;-79
2021/11/06 08:24:40;;;;;;;22.10;14.73;;;8.90;85.70;;;;;;5057096;28;20391;-78
2021/11/06 08:27:07;;;;;;;31.10;15.25;;;9.00;85.20;;;;;;5074795;28;20064;-84
2021/11/06 08:29:33;;;;;;;23.55;14.77;;;9.00;85.20;;;;;;5093625;28;20020;-84
2021/11/06 08:31:59;;;;;;;20.02;15.15;;;9.00;85.00;;;;;;5093282;28;20405;-84
2021/11/06 08:34:28;;;;;;;20.10;14.10;;;9.00;84.80;;;;;;5092574;28;20024;-84
2021/11/06 08:36:56;;;;;;;18.52;12.65;;;9.00;84.90;;;;;;5075565;28;20031;-84
2021/11/06 08:39:22;;;;;;;17.95;13.77;;;9.10;84.80;;;;;;5108796;28;20517;-84
2021/11/06 08:41:49;;;;;;;19.85;12.35;;;9.10;84.60;;;;;;5093120;28;20016;-84
2021/11/06 08:44:16;;;;;;;20.50;12.48;;;9.10;84.60;;;;;;5093666;28;20032;-83
2021/11/06 08:46:44;;;;;;;20.25;13.93;;;9.10;84.40;;;;;;5093549;28;20031;-84
2021/11/06 08:49:10;;;;;;;21.85;13.63;;;9.10;84.20;;;;;;5091850;28;20020;-79
2021/11/06 08:51:35;;;;;;;16.52;12.27;;;9.10;84.20;;;;;;5090590;28;20403;-78
2021/11/06 08:54:01;;;;;;;15.55;11.18;;;9.10;84.40;;;;;;5089698;28;20528;-78
2021/11/06 08:56:28;;;;;;;17.15;12.05;;;9.10;84.40;;;;;;5090557;28;20586;-78
2021/11/06 08:58:55;;;;;;;17.98;12.73;;;9.10;84.20;;;;;;5073986;28;20024;-78
2021/11/06 09:01:21;;;;;;;19.02;12.82;;;9.10;84.30;;;;;;5107709;28;20035;-78
2021/11/06 09:03:47;;;;;;;18.33;12.02;;;9.20;84.20;;;;;;5068412;28;20421;-78
2021/11/06 09:06:13;;;;;;;15.45;11.30;;;9.20;84.10;;;;;;5077730;28;20035;-84
2021/11/06 09:08:42;;;;;;;17.92;13.18;;;9.20;84.00;;;;;;5094659;28;20111;-84
2021/11/06 09:11:11;;;;;;;19.58;12.50;;;9.20;83.90;;;;;;5094768;28;20024;-84
2021/11/06 09:13:38;;;;;;;16.33;11.98;;;9.20;83.90;;;;;;5094531;28;20038;-84
2021/11/06 09:16:06;;;;;;;15.98;12.25;;;9.20;83.90;;;;;;5112995;28;20027;-84
2021/11/06 09:18:33;;;;;;;13.95;12.10;;;9.30;84.00;;;;;;5095373;28;20100;-84
2021/11/06 09:20:58;;;;;;;16.40;12.05;;;9.30;83.70;;;;;;5095346;28;20077;-84
2021/11/06 09:23:24;;;;;;;16.67;11.15;;;9.30;83.70;;;;;;5077371;28;20027;-84
2021/11/06 09:25:50;;;;;;;17.02;11.98;;;9.40;83.80;;;;;;5112879;28;20466;-84
2021/11/06 09:28:16;;;;;;;16.27;11.40;;;9.40;83.60;;;;;;5112591;28;20046;-84
2021/11/06 09:30:42;;;;;;;16.05;11.80;;;9.40;83.60;;;;;;5094768;28;20042;-84
2021/11/06 09:33:08;;;;;;;16.42;11.32;;;9.40;83.50;;;;;;5076133;28;20036;-83
2021/11/06 09:35:33;;;;;;;15.82;11.95;;;9.40;83.50;;;;;;5094270;28;20028;-84
2021/11/06 09:37:59;;;;;;;16.65;11.57;;;9.40;83.60;;;;;;5086395;28;20101;-84
2021/11/06 09:40:25;;;;;;;17.63;12.05;;;9.40;83.40;;;;;;5073383;28;20497;-83
2021/11/06 09:42:52;;;;;;;14.20;10.57;;;9.40;83.40;;;;;;5056710;28;20021;-85
2021/11/06 09:45:18;;;;;;;16.63;11.20;;;9.50;83.20;;;;;;5092518;28;20028;-84
2021/11/06 09:47:45;;;;;;;12.45;10.70;;;9.50;83.20;;;;;;5073923;28;20031;-84
2021/11/06 09:50:16;;;;;;;19.73;10.18;;;9.50;83.10;;;;;;5073856;28;20567;-84
2021/11/06 09:52:43;;;;;;;20.30;11.18;;;9.50;83.30;;;;;;5094920;28;20036;-85
2021/11/06 09:55:09;;;;;;;14.15;10.52;;;9.60;83.20;;;;;;5090828;28;20472;-85
2021/11/06 09:57:35;;;;;;;15.65;11.02;;;9.60;83.00;;;;;;5090631;28;20099;-85
2021/11/06 10:00:06;;;;;;;13.60;9.73;;;9.70;83.00;;;;;;5091412;28;20174;-85
2021/11/06 10:02:32;;;;;;;17.65;10.27;;;9.70;82.80;;;;;;5074050;28;20118;-84
2021/11/06 10:04:58;;;;;;;14.80;10.35;;;9.80;82.50;;;;;;5073998;28;20127;-84
2021/11/06 10:07:26;;;;;;;17.08;10.25;;;9.80;82.50;;;;;;5091846;28;20097;-85
2021/11/06 10:10:00;;;;;;;16.58;9.15;;;9.90;83.20;;;;;;5092117;28;20046;-84
2021/11/06 10:12:42;;;;;;;17.63;11.20;;;9.90;82.30;;;;;;5090014;28;20074;-84
2021/11/06 10:15:09;;;;;;;13.80;9.77;;;10.00;81.90;;;;;;5091150;28;20028;-84
2021/11/06 10:17:35;;;;;;;14.57;9.70;;;10.00;81.70;;;;;;5090320;28;20424;-85
2021/11/06 10:20:30;;;;;;;13.90;9.85;;;10.00;81.70;;;;;;5090680;28;20057;-85
2021/11/06 10:23:03;;;;;;;13.65;8.77;;;10.00;82.00;;;;;;5090134;28;20374;-86
2021/11/06 10:25:29;;;;;;;12.77;9.68;;;10.00;82.00;;;;;;5091512;28;20032;-85
2021/11/06 10:28:14;;;;;;;15.30;9.52;;;10.10;81.90;;;;;;5092018;28;20038;-85
2021/11/06 10:30:43;;;;;;;11.98;8.80;;;10.10;81.70;;;;;;5068174;28;20558;-86
2021/11/06 10:33:18;;;;;;;11.52;8.80;;;10.10;81.60;;;;;;5067349;28;20021;-84
2021/11/06 10:35:49;;;;;;;12.82;8.40;;;10.10;81.50;;;;;;5091514;28;20061;-84
2021/11/06 10:38:16;;;;;;;13.88;8.75;;;10.10;81.70;;;;;;5089682;28;20425;-84
2021/11/06 10:40:46;;;;;;;13.82;8.43;;;10.20;81.90;;;;;;5091149;28;20020;-85
2021/11/06 10:43:14;;;;;;;11.30;8.05;;;10.20;82.50;;;;;;5089261;28;20035;-83
2021/11/06 10:45:48;;;;;;;11.35;8.15;;;10.30;81.90;;;;;;5091356;28;20016;-85
2021/11/06 10:48:19;;;;;;;12.27;8.05;;;10.30;81.50;;;;;;5090020;28;20020;-84
2021/11/06 10:50:51;;;;;;;10.10;7.35;;;10.30;80.70;;;;;;5089860;28;20032;-87
2021/11/06 10:53:44;;;;;;;13.20;8.23;;;10.40;80.60;;;;;;5091152;28;20036;-84
2021/11/06 10:56:14;;;;;;;12.35;8.27;;;10.40;80.20;;;;;;5104815;28;20495;-85
2021/11/06 10:58:45;;;;;;;10.93;7.68;;;10.40;80.30;;;;;;5111485;28;20031;-85
2021/11/06 11:01:18;;;;;;;12.13;7.40;;;10.40;80.30;;;;;;5111876;28;20015;-85
2021/11/06 11:03:46;;;;;;;8.25;7.43;;;10.50;80.10;;;;;;5093725;28;20028;-85
2021/11/06 11:06:28;;;;;;;10.45;8.20;;;10.50;80.00;;;;;;5092978;28;20028;-83
2021/11/06 11:08:56;;;;;;;10.77;7.75;;;10.50;79.90;;;;;;5093354;28;20047;-85
2021/11/06 11:11:24;;;;;;;8.77;6.72;;;10.60;79.60;;;;;;5093424;28;20076;-84
2021/11/06 11:13:56;;;;;;;9.30;7.25;;;10.60;79.50;;;;;;5092919;28;20439;-83
2021/11/06 11:16:23;;;;;;;8.77;6.83;;;10.60;79.60;;;;;;5093211;28;20368;-83
2021/11/06 11:18:54;;;;;;;13.55;7.10;;;10.60;79.60;;;;;;5093046;28;20760;-83
2021/11/06 11:21:25;;;;;;;12.20;7.80;;;10.70;79.60;;;;;;5093786;28;20051;-84
2021/11/06 11:23:59;;;;;;;13.48;7.63;;;10.70;79.30;;;;;;5111318;28;20020;-84
2021/11/06 11:26:28;;;;;;;10.15;7.45;;;10.70;79.10;;;;;;5099218;28;20028;-83
2021/11/06 11:28:54;;;;;;;13.88;6.75;;;10.70;79.10;;;;;;5089136;28;20024;-79
2021/11/06 11:31:24;;;;;;;10.00;6.97;;;10.70;79.70;;;;;;5057468;28;20029;-79
2021/11/06 11:33:51;;;;;;;13.40;7.00;;;10.70;79.60;;;;;;5075829;28;20027;-86
2021/11/06 11:36:21;;;;;;;8.27;6.68;;;10.70;79.40;;;;;;5111671;28;20038;-84
2021/11/06 11:38:47;;;;;;;11.05;6.30;;;10.80;79.60;;;;;;5093198;28;20441;-84
2021/11/06 11:41:32;;;;;;;8.07;6.10;;;10.80;79.70;;;;;;5093907;28;20382;-85
2021/11/06 11:44:19;;;;;;;9.82;6.20;;;10.90;79.20;;;;;;5093617;28;20122;-85
2021/11/06 11:46:49;;;;;;;7.85;6.22;;;10.90;79.10;;;;;;5111660;28;20390;-85
2021/11/06 11:49:17;;;;;;;9.63;6.30;;;10.90;79.40;;;;;;5092804;28;20039;-85
2021/11/06 11:51:43;;;;;;;9.98;6.07;;;11.00;79.40;;;;;;5112025;28;20088;-85
2021/11/06 11:54:10;;;;;;;9.88;5.97;;;11.00;79.00;;;;;;5093283;28;20056;-85
2021/11/06 11:56:40;;;;;;;9.32;5.97;;;11.00;78.80;;;;;;5094107;28;20124;-85
2021/11/06 11:59:07;;;;;;;7.47;5.95;;;11.10;79.10;;;;;;5115197;28;20016;-86
2021/11/06 12:01:34;;;;;;;7.90;5.90;;;11.10;78.80;;;;;;5096294;28;20061;-85
2021/11/06 12:04:16;;;;;;;9.80;5.68;;;11.20;78.90;;;;;;5096021;28;20449;-84
2021/11/06 12:06:44;;;;;;;6.65;5.25;;;11.20;78.80;;;;;;5096944;28;20027;-84
2021/11/06 12:09:15;;;;;;;7.07;5.63;;;11.30;78.50;;;;;;5080342;28;20058;-84
2021/11/06 12:11:52;;;;;;;9.13;5.22;;;11.30;78.20;;;;;;5115801;28;20035;-85
2021/11/06 12:14:29;;;;;;;6.50;5.63;;;11.30;78.30;;;;;;5115501;28;20034;-87
2021/11/06 12:17:06;;;;;;;6.95;5.30;;;11.30;78.20;;;;;;5095745;28;20415;-85
2021/11/06 12:19:40;;;;;;;6.85;5.47;;;11.40;78.30;;;;;;5095918;28;20055;-83
2021/11/06 12:22:07;;;;;;;7.45;5.57;;;11.50;77.80;;;;;;5096204;28;20111;-85
2021/11/06 12:24:33;;;;;;;7.90;5.32;;;11.50;77.00;;;;;;5095934;28;20535;-84
2021/11/06 12:27:02;;;;;;;7.45;5.72;;;11.60;76.90;;;;;;5079424;28;20031;-84
2021/11/06 12:29:35;;;;;;;7.15;5.30;;;11.70;76.80;;;;;;5113930;28;20486;-84
2021/11/06 12:32:32;;;;;;;9.40;5.10;;;11.70;76.80;;;;;;5113536;28;20027;-85
2021/11/06 12:35:18;;;;;;;8.55;5.45;;;11.70;76.60;;;;;;5094606;28;20043;-85
2021/11/06 12:37:46;;;;;;;10.80;5.78;;;11.80;77.00;;;;;;5114492;28;20030;-84
2021/11/06 12:40:15;;;;;;;8.40;5.70;;;11.70;76.80;;;;;;5113579;28;20051;-84
2021/11/06 12:42:41;;;;;;;7.85;6.10;;;11.80;76.70;;;;;;5095635;28;20027;-83